Time;durP1;ratioP1;P1;durP2;ratioP2;P2;SDS_P1;SDS_P2;PMS_P1;PMS_P2;Temp;Humidity;BMP_temperature;BMP_pressure;BME280_temperature;BME280_humidity;BME280_pressure;Samples;Min_cycle;Max_cycle;Signal;HPM_P1;HPM_P2
2023/05/13 00:02:12;;;;;;;7.00;3.20;;;;;;;13.58;58.64;101319.38;6097859;28;20033;-69
2023/05/13 00:05:07;;;;;;;6.03;3.63;;;;;;;13.54;58.66;101334.81;6098450;28;20472;-71
2023/05/13 00:08:06;;;;;;;5.00;2.90;;;;;;;13.56;59.95;101326.69;6099095;28;20344;-71
2023/05/13 00:11:01;;;;;;;6.45;3.30;;;;;;;13.47;59.46;101331.09;6099142;28;20384;-74
2023/05/13 00:13:56;;;;;;;7.97;3.47;;;;;;;13.43;59.48;101329.69;6098379;28;20028;-72
2023/05/13 00:16:51;;;;;;;7.27;3.50;;;;;;;13.31;60.06;101328.22;6097240;28;20171;-73
2023/05/13 00:19:47;;;;;;;5.40;3.40;;;;;;;13.17;60.23;101330.53;6098948;28;20372;-72
2023/05/13 00:22:42;;;;;;;9.23;3.83;;;;;;;13.16;62.06;101323.53;6098908;28;20139;-73
2023/05/13 00:25:37;;;;;;;8.47;3.80;;;;;;;13.12;62.16;101328.31;6095503;28;20043;-73
2023/05/13 00:28:33;;;;;;;6.40;3.47;;;;;;;13.08;62.19;101330.44;6098724;28;20279;-71
2023/05/13 00:31:28;;;;;;;12.57;3.80;;;;;;;12.91;63.15;101320.53;6097194;28;20090;-71
2023/05/13 00:34:23;;;;;;;7.83;3.53;;;;;;;12.93;62.71;101334.53;6095804;28;20036;-69
2023/05/13 00:37:19;;;;;;;6.27;3.60;;;;;;;12.80;63.46;101331.34;6096690;28;20051;-73
2023/05/13 00:40:22;;;;;;;7.90;3.67;;;;;;;12.72;63.71;101320.59;6092492;28;20017;-72
2023/05/13 00:43:17;;;;;;;6.57;3.20;;;;;;;12.77;63.26;101336.97;6098129;28;20275;-70
2023/05/13 00:46:14;;;;;;;6.60;3.47;;;;;;;12.72;63.65;101336.56;6097654;28;20040;-71
2023/05/13 00:49:09;;;;;;;6.50;3.47;;;;;;;12.85;66.19;101331.78;6106314;28;20037;-69
2023/05/13 00:52:05;;;;;;;6.70;3.50;;;;;;;12.88;65.71;101326.13;6106611;28;20083;-70
2023/05/13 00:55:00;;;;;;;6.05;3.70;;;;;;;12.96;64.76;101344.06;6097375;28;20529;-71
2023/05/13 00:57:55;;;;;;;6.20;3.17;;;;;;;12.87;67.88;101350.25;6098582;28;20028;-73
2023/05/13 01:01:00;;;;;;;5.27;2.97;;;;;;;12.61;68.11;101347.38;6097076;28;20037;-70
2023/05/13 01:04:07;;;;;;;7.53;3.80;;;;;;;12.59;67.77;101357.31;6087167;28;20283;-70
2023/05/13 01:07:30;;;;;;;5.53;3.17;;;;;;;12.42;67.02;101350.91;6096723;28;20090;-70
2023/05/13 01:10:37;;;;;;;6.57;3.08;;;;;;;11.84;70.49;101355.41;6095630;28;20379;-71
2023/05/13 01:13:37;;;;;;;6.45;3.58;;;;;;;11.33;73.58;101344.09;6097601;28;20035;-69
2023/05/13 01:16:58;;;;;;;7.20;4.07;;;;;;;11.16;75.00;101358.00;6096953;28;20025;-73
2023/05/13 01:19:56;;;;;;;7.53;3.47;;;;;;;10.82;76.91;101359.25;6085470;28;20025;-71
2023/05/13 01:22:52;;;;;;;8.07;3.63;;;;;;;10.75;77.69;101343.84;6097702;28;20125;-71
2023/05/13 01:25:49;;;;;;;5.70;3.73;;;;;;;10.43;79.13;101348.41;6096937;28;20068;-69
2023/05/13 01:28:44;;;;;;;7.00;3.95;;;;;;;10.63;79.64;101355.50;6097568;28;20029;-71
2023/05/13 01:31:40;;;;;;;9.40;4.05;;;;;;;11.09;79.06;101357.69;6096304;28;20120;-73
2023/05/13 01:34:37;;;;;;;9.15;3.90;;;;;;;11.07;76.87;101337.56;6093169;28;20067;-69
2023/05/13 01:37:32;;;;;;;6.63;3.70;;;;;;;10.74;78.51;101358.06;6094003;28;20071;-71
2023/05/13 01:40:28;;;;;;;4.68;3.17;;;;;;;10.32;79.42;101331.72;6097197;28;20123;-72
2023/05/13 01:43:23;;;;;;;7.38;4.25;;;;;;;10.25;80.84;101357.88;6095507;28;20067;-72
2023/05/13 01:46:19;;;;;;;6.07;3.97;;;;;;;10.09;81.98;101368.03;6095365;28;20446;-71
2023/05/13 01:49:14;;;;;;;6.30;3.90;;;;;;;9.77;83.12;101360.09;6095658;28;20286;-73
2023/05/13 01:52:10;;;;;;;6.80;4.00;;;;;;;9.62;84.87;101365.81;6097151;28;20053;-70
2023/05/13 01:55:06;;;;;;;7.18;4.15;;;;;;;9.41;86.23;101366.56;6095203;28;20029;-70
2023/05/13 01:58:01;;;;;;;8.50;4.03;;;;;;;9.35;87.83;101364.38;6097449;28;20112;-69
2023/05/13 02:00:56;;;;;;;6.57;3.93;;;;;;;9.41;88.51;101368.34;6095810;28;20033;-71
2023/05/13 02:03:52;;;;;;;6.07;3.80;;;;;;;9.43;87.59;101356.69;6096734;28;20037;-70
2023/05/13 02:06:47;;;;;;;9.30;3.70;;;;;;;9.38;88.46;101361.50;6095758;28;20082;-72
2023/05/13 02:09:43;;;;;;;8.30;3.90;;;;;;;9.56;87.60;101369.78;6097022;28;20127;-72
2023/05/13 02:12:38;;;;;;;6.70;3.63;;;;;;;9.79;86.34;101358.16;6097424;28;20036;-73
2023/05/13 02:15:33;;;;;;;7.60;3.83;;;;;;;9.99;83.43;101353.88;6094456;28;20037;-70
2023/05/13 02:18:28;;;;;;;7.03;4.30;;;;;;;10.47;80.77;101359.56;6096668;28;20041;-72
2023/05/13 02:21:24;;;;;;;6.23;3.90;;;;;;;10.58;79.98;101368.31;6097045;28;20037;-69
2023/05/13 02:24:19;;;;;;;7.83;3.70;;;;;;;10.66;79.44;101349.94;6095140;28;20028;-73
2023/05/13 02:27:15;;;;;;;10.73;3.72;;;;;;;10.81;78.01;101345.13;6096717;28;20025;-69
2023/05/13 02:30:11;;;;;;;8.20;3.70;;;;;;;10.83;76.54;101345.00;6095144;28;20029;-69
2023/05/13 02:33:07;;;;;;;6.25;3.28;;;;;;;11.12;76.00;101352.09;6093312;28;20371;-70
2023/05/13 02:36:03;;;;;;;10.50;3.42;;;;;;;11.29;75.50;101359.44;6095097;28;20064;-72
2023/05/13 02:38:58;;;;;;;6.53;3.40;;;;;;;11.14;75.92;101346.69;6095668;28;20029;-71
2023/05/13 02:41:53;;;;;;;6.00;3.20;;;;;;;10.99;75.84;101351.50;6097031;28;20529;-71
2023/05/13 02:44:49;;;;;;;8.07;3.37;;;;;;;11.01;76.77;101364.63;6094704;28;20044;-70
2023/05/13 02:47:44;;;;;;;8.50;3.23;;;;;;;10.84;77.45;101357.28;6096588;28;20048;-72
2023/05/13 02:50:40;;;;;;;6.80;3.42;;;;;;;10.95;78.11;101350.06;6095643;28;20025;-71
2023/05/13 02:53:35;;;;;;;9.32;3.60;;;;;;;10.92;76.27;101339.75;6095543;28;20037;-71
2023/05/13 02:56:31;;;;;;;7.85;4.03;;;;;;;10.99;75.40;101340.03;6096614;28;20035;-72
2023/05/13 02:59:26;;;;;;;6.17;3.30;;;;;;;10.84;77.64;101352.84;6100410;28;20439;-73
2023/05/13 03:02:21;;;;;;;6.00;3.40;;;;;;;10.71;78.11;101358.34;6099641;28;20037;-69
2023/05/13 03:05:16;;;;;;;6.97;3.60;;;;;;;10.53;79.08;101349.31;6099600;28;20025;-73
2023/05/13 03:08:12;;;;;;;12.33;4.80;;;;;;;10.48;78.38;101359.47;6100791;28;20340;-71
2023/05/13 03:11:07;;;;;;;8.73;4.17;;;;;;;10.50;79.52;101360.16;6099884;28;20061;-73
2023/05/13 03:14:02;;;;;;;8.97;4.30;;;;;;;10.58;80.37;101368.31;6099634;28;20070;-72
2023/05/13 03:16:57;;;;;;;7.03;3.80;;;;;;;10.67;79.22;101356.09;6098859;28;20384;-71
2023/05/13 03:19:53;;;;;;;8.47;3.90;;;;;;;10.19;79.72;101363.72;6099892;28;20063;-72
2023/05/13 03:22:48;;;;;;;7.13;3.50;;;;;;;9.94;81.45;101364.03;6100253;28;20047;-71
2023/05/13 03:25:43;;;;;;;6.77;3.40;;;;;;;10.00;82.66;101371.47;6103828;28;20033;-69
2023/05/13 03:28:39;;;;;;;7.60;3.87;;;;;;;10.15;82.60;101391.44;6113143;28;20032;-70
2023/05/13 03:31:34;;;;;;;9.93;4.10;;;;;;;10.38;82.13;101376.28;6099016;28;20090;-71
2023/05/13 03:34:29;;;;;;;12.45;4.18;;;;;;;10.21;83.07;101368.88;6099365;28;20116;-74
2023/05/13 03:37:25;;;;;;;7.27;3.90;;;;;;;10.45;80.79;101378.28;6100305;28;20025;-71
2023/05/13 03:40:20;;;;;;;6.53;3.33;;;;;;;10.60;80.20;101379.63;6098809;28;20370;-71
2023/05/13 03:43:15;;;;;;;6.47;4.00;;;;;;;10.30;80.39;101376.88;6099196;28;20607;-74
2023/05/13 03:46:11;;;;;;;7.93;4.67;;;;;;;10.34;80.78;101396.03;6098764;28;20035;-74
2023/05/13 03:49:06;;;;;;;7.20;3.77;;;;;;;10.41;80.70;101386.63;6100367;28;20028;-71
2023/05/13 03:52:01;;;;;;;6.60;3.70;;;;;;;10.51;80.05;101377.75;6098442;28;20275;-72
2023/05/13 03:54:57;;;;;;;9.30;3.58;;;;;;;10.49;79.39;101371.72;6099546;28;20087;-72
2023/05/13 03:57:52;;;;;;;5.50;3.40;;;;;;;10.37;79.25;101401.09;6099343;28;20025;-70
2023/05/13 04:00:48;;;;;;;7.60;4.00;;;;;;;10.47;80.15;101396.69;6098324;28;20039;-72
2023/05/13 04:03:45;;;;;;;7.05;3.63;;;;;;;10.55;81.60;101399.53;6098795;28;20399;-73
2023/05/13 04:06:40;;;;;;;11.52;4.10;;;;;;;10.59;80.26;101379.75;6086522;28;20122;-71
2023/05/13 04:09:36;;;;;;;7.97;4.57;;;;;;;10.62;79.55;101395.44;6098786;28;20025;-70
2023/05/13 04:12:32;;;;;;;6.53;3.47;;;;;;;10.46;80.30;101395.84;6098275;28;20029;-70
2023/05/13 04:15:27;;;;;;;5.35;4.05;;;;;;;10.22;80.59;101391.78;6098887;28;20260;-73
2023/05/13 04:18:22;;;;;;;7.57;4.03;;;;;;;10.04;82.47;101394.94;6097493;28;20383;-71
2023/05/13 04:21:18;;;;;;;6.33;4.17;;;;;;;10.07;82.76;101394.69;6098120;28;20287;-73
2023/05/13 04:24:13;;;;;;;7.43;3.97;;;;;;;10.09;83.46;101394.53;6098865;28;20044;-72
2023/05/13 04:27:08;;;;;;;7.03;4.00;;;;;;;10.25;83.72;101408.25;6098844;28;20444;-70
2023/05/13 04:30:04;;;;;;;7.63;3.73;;;;;;;10.28;83.19;101407.16;6098902;28;20032;-70
2023/05/13 04:33:00;;;;;;;7.43;3.70;;;;;;;10.41;83.13;101398.03;6097875;28;20040;-71
2023/05/13 04:35:55;;;;;;;7.53;3.70;;;;;;;10.79;81.24;101386.84;6098405;28;20029;-71
2023/05/13 04:38:50;;;;;;;5.87;4.00;;;;;;;11.73;79.36;101390.06;6099037;28;20059;-73
2023/05/13 04:41:45;;;;;;;5.70;3.20;;;;;;;12.11;75.20;101394.59;6097397;28;20036;-69
2023/05/13 04:44:41;;;;;;;6.70;4.00;;;;;;;12.17;72.16;101403.84;6093918;28;20110;-70
2023/05/13 04:47:36;;;;;;;7.53;3.85;;;;;;;12.28;71.54;101398.38;6097385;28;20061;-72
2023/05/13 04:50:32;;;;;;;7.28;4.07;;;;;;;12.44;69.41;101406.63;6097509;28;20032;-70
2023/05/13 04:53:27;;;;;;;7.47;3.87;;;;;;;12.41;69.26;101401.59;6097830;28;20032;-71
2023/05/13 04:56:22;;;;;;;7.87;3.60;;;;;;;12.56;68.76;101405.50;6097841;28;20537;-69
2023/05/13 04:59:18;;;;;;;6.37;3.60;;;;;;;12.70;67.46;101418.38;6095235;28;20041;-71
2023/05/13 05:02:13;;;;;;;8.70;4.03;;;;;;;12.34;68.96;101422.59;6096368;28;20028;-73
2023/05/13 05:05:08;;;;;;;10.13;4.00;;;;;;;12.32;70.87;101415.72;6097461;28;20263;-70
2023/05/13 05:08:04;;;;;;;6.90;3.67;;;;;;;12.74;70.00;101413.59;6095806;28;20154;-70
2023/05/13 05:11:00;;;;;;;7.43;3.85;;;;;;;13.62;67.82;101427.34;6092794;28;20491;-73
2023/05/13 05:13:55;;;;;;;6.32;3.80;;;;;;;13.21;66.97;101422.50;6097113;28;20032;-69
2023/05/13 05:16:51;;;;;;;7.60;3.30;;;;;;;13.25;68.59;101410.53;6094992;28;20036;-72
2023/05/13 05:19:46;;;;;;;6.67;3.90;;;;;;;14.39;62.70;101416.19;6095412;28;20028;-69
2023/05/13 05:22:41;;;;;;;8.13;3.73;;;;;;;13.04;67.63;101418.72;6097532;28;20029;-69
2023/05/13 05:25:37;;;;;;;7.30;4.17;;;;;;;13.38;65.07;101435.88;6097168;28;20063;-71
2023/05/13 05:28:32;;;;;;;6.83;3.73;;;;;;;13.53;64.08;101414.91;6091266;28;20299;-73
2023/05/13 05:31:27;;;;;;;9.05;3.92;;;;;;;13.63;64.87;101413.88;6096096;28;20044;-72
2023/05/13 05:34:23;;;;;;;7.35;4.18;;;;;;;13.34;66.18;101423.00;6095387;28;20041;-70
2023/05/13 05:37:18;;;;;;;10.57;4.10;;;;;;;13.54;64.98;101425.41;6096062;28;20048;-73
2023/05/13 05:40:13;;;;;;;9.80;4.43;;;;;;;13.63;64.42;101429.88;6097546;28;20753;-72
2023/05/13 05:43:12;;;;;;;8.53;4.17;;;;;;;13.89;63.62;101419.31;6097148;28;20028;-72
2023/05/13 05:46:07;;;;;;;6.97;4.10;;;;;;;14.10;63.03;101425.25;6095424;28;20280;-72
2023/05/13 05:49:03;;;;;;;8.53;4.10;;;;;;;14.35;62.64;101441.53;6096600;28;20052;-72
2023/05/13 05:51:58;;;;;;;6.70;4.20;;;;;;;14.02;63.97;101430.47;6097498;28;20040;-73
2023/05/13 05:54:53;;;;;;;6.53;3.97;;;;;;;13.95;62.38;101432.06;6107213;28;20025;-70
2023/05/13 05:57:49;;;;;;;10.07;4.30;;;;;;;14.16;62.79;101443.28;6097571;28;20025;-73
2023/05/13 06:00:46;;;;;;;7.60;4.00;;;;;;;15.07;60.26;101436.75;6098203;28;20048;-70
2023/05/13 06:03:41;;;;;;;8.23;4.00;;;;;;;15.17;58.67;101432.13;6111968;28;20029;-69
2023/05/13 06:06:38;;;;;;;7.43;4.17;;;;;;;14.52;61.83;101432.66;6100352;28;20179;-68
2023/05/13 06:09:33;;;;;;;7.85;4.28;;;;;;;15.51;57.64;101437.53;6096395;28;20032;-71
2023/05/13 06:12:29;;;;;;;10.13;4.10;;;;;;;15.00;60.77;101441.03;6095453;28;20029;-70
2023/05/13 06:15:24;;;;;;;8.57;4.03;;;;;;;15.72;59.19;101419.22;6095475;28;20033;-74
2023/05/13 06:18:19;;;;;;;6.63;4.30;;;;;;;15.78;57.96;101428.44;6089341;28;20291;-72
2023/05/13 06:21:15;;;;;;;7.40;4.00;;;;;;;16.07;58.07;101423.50;6097281;28;20406;-69
2023/05/13 06:24:10;;;;;;;8.75;3.97;;;;;;;15.85;57.53;101435.66;6094484;28;20029;-72
2023/05/13 06:27:05;;;;;;;6.53;4.50;;;;;;;15.43;59.95;101432.97;6097027;28;20028;-71
2023/05/13 06:30:01;;;;;;;9.07;4.40;;;;;;;15.67;58.24;101431.41;6097265;28;20029;-71
2023/05/13 06:32:57;;;;;;;11.93;4.40;;;;;;;15.89;58.97;101441.53;6097578;28;20091;-70
2023/05/13 06:35:52;;;;;;;6.25;4.10;;;;;;;16.11;56.74;101427.53;6101128;28;20025;-71
2023/05/13 06:38:47;;;;;;;9.00;4.70;;;;;;;16.34;56.20;101431.25;6097402;28;20043;-72
2023/05/13 06:41:42;;;;;;;8.73;4.23;;;;;;;16.33;56.89;101429.59;6099734;28;20024;-70
2023/05/13 06:44:38;;;;;;;7.20;4.63;;;;;;;16.00;57.12;101446.56;6100868;28;20375;-70
2023/05/13 06:47:34;;;;;;;7.43;4.38;;;;;;;16.25;57.12;101429.53;6100487;28;20028;-72
2023/05/13 06:50:29;;;;;;;7.82;4.45;;;;;;;16.22;56.38;101448.63;6101360;28;20384;-70
2023/05/13 06:53:25;;;;;;;9.30;4.40;;;;;;;16.66;55.84;101425.09;6100652;28;20033;-73
2023/05/13 06:56:24;;;;;;;9.30;4.70;;;;;;;16.31;56.80;101444.94;6101493;28;20391;-71
2023/05/13 06:59:21;;;;;;;7.60;4.35;;;;;;;16.28;57.03;101441.78;6100268;28;20056;-73
2023/05/13 07:02:16;;;;;;;12.50;4.40;;;;;;;16.42;55.42;101433.91;6104226;28;20033;-74
2023/05/13 07:05:11;;;;;;;11.97;4.83;;;;;;;16.72;54.52;101429.78;6099157;28;20392;-72
2023/05/13 07:08:07;;;;;;;8.50;4.13;;;;;;;17.12;53.64;101434.25;6098908;28;20230;-70
2023/05/13 07:11:02;;;;;;;5.78;4.18;;;;;;;16.77;54.14;101442.69;6100939;28;20120;-73
2023/05/13 07:13:58;;;;;;;9.27;4.05;;;;;;;16.78;53.67;101438.97;6097333;28;20028;-69
2023/05/13 07:16:53;;;;;;;9.83;4.50;;;;;;;16.81;54.30;101454.72;6098904;28;20028;-73
2023/05/13 07:19:48;;;;;;;13.23;4.57;;;;;;;17.15;52.93;101432.06;6095023;28;20021;-71
2023/05/13 07:22:44;;;;;;;10.63;4.78;;;;;;;16.63;54.60;101442.31;6095605;28;20082;-71
2023/05/13 07:25:39;;;;;;;9.50;4.43;;;;;;;16.55;56.57;101442.31;6093117;28;20147;-70
2023/05/13 07:28:34;;;;;;;6.73;4.07;;;;;;;17.10;53.89;101436.25;6104607;28;21027;-70
2023/05/13 07:31:30;;;;;;;7.13;4.10;;;;;;;16.88;55.00;101445.84;6096787;28;20077;-72
2023/05/13 07:34:25;;;;;;;7.53;4.30;;;;;;;17.35;53.52;101459.31;6093526;28;20100;-74
2023/05/13 07:37:20;;;;;;;9.67;4.83;;;;;;;17.49;53.15;101445.22;6101470;28;20078;-73
2023/05/13 07:40:16;;;;;;;8.40;4.60;;;;;;;16.93;53.93;101438.13;6099791;28;20025;-71
2023/05/13 07:43:12;;;;;;;16.40;5.28;;;;;;;17.25;53.15;101442.59;6100679;28;20056;-73
2023/05/13 07:46:08;;;;;;;8.00;4.70;;;;;;;17.34;53.76;101446.91;6098004;28;20043;-72
2023/05/13 07:49:05;;;;;;;7.43;4.50;;;;;;;18.05;53.24;101445.97;6097051;28;20037;-72
2023/05/13 07:52:01;;;;;;;13.07;5.00;;;;;;;18.12;52.22;101439.75;6102956;28;20025;-72
2023/05/13 07:54:56;;;;;;;8.60;4.17;;;;;;;18.06;51.12;101426.19;6097471;28;20053;-72
2023/05/13 07:57:51;;;;;;;9.82;3.80;;;;;;;18.13;51.90;101438.72;6099399;28;20396;-71
2023/05/13 08:00:48;;;;;;;10.10;4.13;;;;;;;18.30;51.37;101450.19;6100210;28;20037;-70
2023/05/13 08:03:43;;;;;;;8.27;4.60;;;;;;;17.64;52.50;101448.03;6087720;28;20033;-71
2023/05/13 08:06:38;;;;;;;9.10;4.20;;;;;;;18.27;52.41;101434.44;6093631;28;20134;-73
2023/05/13 08:09:34;;;;;;;9.73;5.17;;;;;;;18.26;51.54;101456.94;6091825;28;20067;-71
2023/05/13 08:12:29;;;;;;;7.05;4.10;;;;;;;18.24;51.03;101456.28;6097241;28;20303;-72
2023/05/13 08:15:25;;;;;;;6.87;4.60;;;;;;;18.07;52.13;101441.28;6098813;28;20029;-71
2023/05/13 08:18:21;;;;;;;12.05;4.85;;;;;;;18.52;52.51;101443.19;6091463;28;20497;-73
2023/05/13 08:21:16;;;;;;;9.43;4.47;;;;;;;19.06;50.07;101438.50;6098256;28;20024;-71
2023/05/13 08:24:11;;;;;;;8.10;4.50;;;;;;;18.83;51.06;101441.25;6098440;28;20039;-69
2023/05/13 08:27:17;;;;;;;7.43;4.75;;;;;;;18.87;51.31;101448.78;6097923;28;20021;-70
2023/05/13 08:30:13;;;;;;;6.65;4.30;;;;;;;19.00;50.74;101448.13;6096120;28;20439;-70
2023/05/13 08:33:17;;;;;;;6.68;4.10;;;;;;;18.74;49.60;101442.34;6095972;28;20021;-72
2023/05/13 08:36:13;;;;;;;8.18;4.22;;;;;;;19.20;48.80;101432.31;6092048;28;20118;-69
2023/05/13 08:39:08;;;;;;;11.35;4.18;;;;;;;19.20;48.84;101438.53;6095636;28;20563;-68
2023/05/13 08:42:07;;;;;;;6.93;4.40;;;;;;;19.58;49.67;101444.69;6095991;28;20025;-69
2023/05/13 08:45:06;;;;;;;8.57;4.45;;;;;;;19.60;47.40;101434.56;6090431;28;20599;-71
2023/05/13 08:48:03;;;;;;;7.47;4.15;;;;;;;19.61;48.13;101430.88;6092680;28;20032;-70
2023/05/13 08:51:00;;;;;;;7.70;4.15;;;;;;;19.74;47.24;101439.09;6096264;28;20123;-72
2023/05/13 08:53:56;;;;;;;9.02;4.30;;;;;;;20.00;47.13;101420.56;6092495;28;20443;-71
2023/05/13 08:56:51;;;;;;;11.00;4.20;;;;;;;19.84;46.32;101442.31;6094568;28;20021;-71
2023/05/13 08:59:46;;;;;;;12.23;4.53;;;;;;;19.80;46.93;101440.22;6102397;28;20102;-70
2023/05/13 09:02:42;;;;;;;10.00;4.50;;;;;;;19.75;47.03;101421.94;6098027;28;20028;-72
2023/05/13 09:05:37;;;;;;;6.47;4.22;;;;;;;19.82;46.69;101417.47;6093451;28;21712;-70
2023/05/13 09:08:33;;;;;;;11.90;4.60;;;;;;;19.97;46.98;101434.44;6097967;28;20578;-71
2023/05/13 09:11:28;;;;;;;8.63;4.00;;;;;;;20.36;46.00;101447.50;6096944;28;20048;-71
2023/05/13 09:14:30;;;;;;;8.20;4.37;;;;;;;20.16;46.98;101439.19;6096423;28;20040;-69
2023/05/13 09:17:25;;;;;;;11.65;3.97;;;;;;;20.20;47.04;101431.56;6098418;28;20013;-72
2023/05/13 09:20:21;;;;;;;8.10;4.63;;;;;;;20.38;47.09;101441.94;6096726;28;20036;-71
2023/05/13 09:23:17;;;;;;;6.30;3.75;;;;;;;20.67;46.59;101422.94;6096095;28;20036;-71
2023/05/13 09:26:26;;;;;;;8.23;4.05;;;;;;;20.75;46.50;101426.31;6097352;28;20021;-71
2023/05/13 09:29:28;;;;;;;5.32;3.38;;;;;;;20.64;45.71;101413.38;6096465;28;20039;-71
2023/05/13 09:32:23;;;;;;;6.97;4.28;;;;;;;20.74;44.69;101429.19;6097793;28;20057;-70
2023/05/13 09:35:18;;;;;;;10.67;3.93;;;;;;;20.50;43.14;101414.28;6093253;28;20045;-72
2023/05/13 09:38:40;;;;;;;8.65;3.55;;;;;;;20.51;42.67;101434.81;6096478;28;20487;-72
2023/05/13 09:41:35;;;;;;;7.32;3.72;;;;;;;20.43;42.80;101418.78;6089349;28;20507;-72
2023/05/13 09:44:31;;;;;;;12.53;3.50;;;;;;;20.74;42.11;101421.09;6092195;28;20132;-70
2023/05/13 09:47:27;;;;;;;7.28;3.22;;;;;;;20.85;41.40;101409.78;6096493;28;20382;-72
2023/05/13 09:50:22;;;;;;;5.05;2.60;;;;;;;20.96;39.35;101411.94;6095588;28;20618;-70
2023/05/13 09:53:21;;;;;;;5.85;3.22;;;;;;;20.73;38.37;101408.69;6095906;28;20035;-72
2023/05/13 09:56:20;;;;;;;7.13;2.63;;;;;;;20.69;37.50;101415.47;6094458;28;20028;-72
2023/05/13 09:59:16;;;;;;;5.47;2.53;;;;;;;20.88;36.82;101409.41;6096080;28;20044;-71
2023/05/13 10:02:12;;;;;;;4.00;2.50;;;;;;;20.96;35.30;101416.50;6096795;28;20040;-71
2023/05/13 10:05:07;;;;;;;6.75;2.50;;;;;;;20.77;36.18;101400.00;6092059;28;20287;-71
2023/05/13 10:08:03;;;;;;;4.82;2.80;;;;;;;21.27;36.78;101404.31;6097260;28;20028;-70
2023/05/13 10:10:59;;;;;;;6.57;2.50;;;;;;;21.46;35.09;101408.16;6101810;28;20494;-70
2023/05/13 10:13:59;;;;;;;8.20;3.10;;;;;;;21.71;35.07;101416.56;6100241;28;20037;-72
2023/05/13 10:16:56;;;;;;;3.80;2.55;;;;;;;21.68;34.68;101406.19;6098245;28;20040;-71
2023/05/13 10:19:53;;;;;;;6.35;2.05;;;;;;;21.73;34.40;101425.31;6099241;28;20021;-71
2023/05/13 10:22:49;;;;;;;4.97;2.38;;;;;;;21.47;32.47;101414.41;6102022;28;20471;-70
2023/05/13 10:25:46;;;;;;;6.07;2.58;;;;;;;21.76;32.64;101404.13;6098190;28;20037;-71
2023/05/13 10:28:41;;;;;;;4.28;2.53;;;;;;;21.53;33.98;101409.00;6101475;28;20029;-71
2023/05/13 10:31:37;;;;;;;8.40;2.42;;;;;;;21.79;32.51;101419.09;6101182;28;20060;-71
2023/05/13 10:34:33;;;;;;;5.60;2.45;;;;;;;21.70;32.01;101421.13;6100269;28;20041;-72
2023/05/13 10:37:54;;;;;;;3.95;2.97;;;;;;;21.72;32.98;101424.47;6100298;28;20112;-72
2023/05/13 10:41:03;;;;;;;4.60;2.53;;;;;;;21.76;34.55;101408.69;6097509;28;20043;-70
2023/05/13 10:43:58;;;;;;;4.15;2.20;;;;;;;22.07;33.36;101417.13;6097616;28;20033;-73
2023/05/13 10:46:57;;;;;;;6.32;3.20;;;;;;;21.86;34.00;101412.72;6099953;28;20507;-69
2023/05/13 10:49:52;;;;;;;7.25;2.60;;;;;;;21.38;32.28;101386.72;6101100;28;20035;-72
2023/05/13 10:52:48;;;;;;;6.68;2.72;;;;;;;21.68;34.28;101396.22;6101156;28;20389;-70
2023/05/13 10:55:46;;;;;;;4.55;2.95;;;;;;;21.85;35.02;101399.41;6100563;28;20029;-71
2023/05/13 10:58:41;;;;;;;8.45;2.60;;;;;;;22.26;33.90;101408.25;6100451;28;20059;-71
2023/05/13 11:01:42;;;;;;;6.37;3.20;;;;;;;22.39;33.46;101402.84;6101235;28;20025;-70
2023/05/13 11:04:56;;;;;;;6.93;2.85;;;;;;;21.85;35.59;101402.91;6100680;28;20057;-71
2023/05/13 11:07:55;;;;;;;5.30;2.75;;;;;;;21.50;35.12;101404.00;6100816;28;20032;-72
2023/05/13 11:10:54;;;;;;;11.85;3.10;;;;;;;21.32;35.18;101407.25;6100811;28;20025;-72
2023/05/13 11:14:12;;;;;;;6.38;3.00;;;;;;;21.70;35.49;101404.94;6100502;28;20456;-71
2023/05/13 11:17:09;;;;;;;6.93;2.80;;;;;;;22.11;34.35;101409.47;6094662;28;20021;-69
2023/05/13 11:20:05;;;;;;;5.55;2.63;;;;;;;21.70;35.06;101404.94;6099815;28;20459;-71
2023/05/13 11:23:00;;;;;;;5.95;3.25;;;;;;;22.26;33.83;101394.72;6099050;28;20102;-71
2023/05/13 11:26:13;;;;;;;7.70;2.70;;;;;;;22.76;32.66;101401.44;6099398;28;20086;-72
2023/05/13 11:29:08;;;;;;;9.25;3.05;;;;;;;22.04;32.65;101379.72;6100461;28;20387;-72
2023/05/13 11:32:05;;;;;;;5.53;2.90;;;;;;;22.25;32.88;101381.44;6099558;28;20112;-69
2023/05/13 11:35:00;;;;;;;9.30;2.80;;;;;;;22.75;32.12;101394.38;6099394;28;20025;-69
2023/05/13 11:38:05;;;;;;;6.22;3.10;;;;;;;23.13;31.83;101381.81;6098607;28;20048;-72
2023/05/13 11:41:00;;;;;;;5.78;2.85;;;;;;;23.61;30.27;101385.06;6100112;28;20056;-73
2023/05/13 11:43:58;;;;;;;5.03;2.30;;;;;;;23.59;28.80;101384.41;6098605;28;20404;-74
2023/05/13 11:47:01;;;;;;;5.30;2.30;;;;;;;23.82;28.42;101380.34;6100038;28;20393;-71
2023/05/13 11:49:57;;;;;;;3.83;2.10;;;;;;;23.48;29.01;101382.38;6100153;28;20353;-72
2023/05/13 11:52:54;;;;;;;6.28;2.58;;;;;;;23.40;27.76;101392.63;6099992;28;20069;-72
2023/05/13 11:55:50;;;;;;;5.75;2.30;;;;;;;23.10;29.11;101381.44;6099349;28;20028;-71
2023/05/13 11:58:45;;;;;;;8.27;2.72;;;;;;;23.87;28.23;101369.69;6099947;28;20037;-72
2023/05/13 12:01:41;;;;;;;9.00;2.60;;;;;;;24.09;27.37;101377.31;6099519;28;20033;-72
2023/05/13 12:04:36;;;;;;;5.90;2.60;;;;;;;23.90;28.29;101371.97;6099056;28;20028;-70
2023/05/13 12:07:32;;;;;;;3.50;2.27;;;;;;;22.88;28.05;101372.72;6099117;28;20037;-73
2023/05/13 12:10:27;;;;;;;10.57;2.60;;;;;;;22.87;29.00;101367.53;6099533;28;20427;-73
2023/05/13 12:13:23;;;;;;;4.33;2.50;;;;;;;23.23;29.13;101370.56;6099181;28;20032;-72
2023/05/13 12:16:18;;;;;;;7.27;3.00;;;;;;;23.57;27.94;101362.13;6095702;28;20279;-71
2023/05/13 12:19:13;;;;;;;5.77;2.63;;;;;;;23.79;27.37;101375.38;6094746;28;20064;-72
2023/05/13 12:22:09;;;;;;;4.27;2.20;;;;;;;23.47;27.10;101382.59;6098982;28;20271;-72
2023/05/13 12:25:35;;;;;;;5.90;2.47;;;;;;;23.09;27.23;101377.06;6098076;28;20369;-71
2023/05/13 12:28:30;;;;;;;4.55;2.10;;;;;;;23.38;26.13;101363.03;6098409;28;20056;-72
2023/05/13 12:31:26;;;;;;;6.80;2.50;;;;;;;23.45;26.86;101376.56;6097205;28;20039;-70
2023/05/13 12:34:34;;;;;;;7.25;2.78;;;;;;;23.39;26.02;101363.88;6097981;28;20033;-71
2023/05/13 12:37:29;;;;;;;4.25;2.40;;;;;;;23.93;26.57;101358.81;6098802;28;20051;-71
2023/05/13 12:40:25;;;;;;;6.10;2.20;;;;;;;24.21;26.07;101344.91;6097694;28;20029;-70
2023/05/13 12:43:21;;;;;;;6.95;2.50;;;;;;;24.35;26.35;101343.75;6097536;28;20025;-72
2023/05/13 12:46:17;;;;;;;3.67;2.28;;;;;;;24.05;25.90;101348.13;6097602;28;20499;-70
2023/05/13 12:49:13;;;;;;;4.33;2.00;;;;;;;23.83;26.17;101357.63;6098136;28;20035;-71
2023/05/13 12:52:09;;;;;;;3.92;2.22;;;;;;;23.85;26.33;101342.00;6098243;28;20103;-71
2023/05/13 12:55:04;;;;;;;5.70;2.13;;;;;;;23.20;25.75;101343.09;6097421;28;20033;-70
2023/05/13 12:58:02;;;;;;;4.50;2.08;;;;;;;23.16;26.70;101355.38;6098049;28;20098;-71
2023/05/13 13:00:57;;;;;;;3.75;1.92;;;;;;;23.09;26.74;101358.13;6097090;28;20163;-70
2023/05/13 13:03:52;;;;;;;3.77;1.90;;;;;;;22.38;28.60;101368.75;6097238;28;20464;-70
2023/05/13 13:06:48;;;;;;;5.90;2.30;;;;;;;22.02;27.88;101367.44;6098080;28;20107;-73
2023/05/13 13:09:43;;;;;;;3.63;2.13;;;;;;;21.84;28.03;101359.91;6097103;28;20087;-70
2023/05/13 13:12:38;;;;;;;4.13;2.40;;;;;;;22.41;26.44;101362.09;6097791;28;20025;-71
2023/05/13 13:15:34;;;;;;;5.35;2.13;;;;;;;22.87;24.76;101348.59;6096836;28;20044;-70
2023/05/13 13:18:30;;;;;;;6.70;2.00;;;;;;;23.17;25.50;101348.94;6090848;28;20388;-71
2023/05/13 13:21:25;;;;;;;4.23;1.70;;;;;;;23.76;25.31;101344.13;6097373;28;20043;-72
2023/05/13 13:24:21;;;;;;;5.43;1.90;;;;;;;24.04;25.67;101349.16;6096607;28;20735;-71
2023/05/13 13:27:17;;;;;;;7.27;1.93;;;;;;;23.49;24.32;101319.06;6098121;28;20306;-72
2023/05/13 13:30:13;;;;;;;5.32;1.80;;;;;;;23.99;23.92;101349.00;6097358;28;20263;-71
2023/05/13 13:33:08;;;;;;;6.75;2.22;;;;;;;24.09;23.55;101328.53;6096970;28;20085;-69
2023/05/13 13:36:04;;;;;;;4.27;2.17;;;;;;;23.93;22.90;101333.59;6097257;28;20033;-71
2023/05/13 13:38:59;;;;;;;3.22;2.10;;;;;;;24.01;23.19;101352.31;6095599;28;20517;-71
2023/05/13 13:41:56;;;;;;;6.07;2.15;;;;;;;24.10;23.29;101338.31;6097650;28;20040;-72